logo
Search for airport 
image banner adimage banner adimage banner ad
image banner ad

ESUS - Asele

Located in , Sweden

ICAO - ESUS, IATA -

Data provided by Airmate  

General information

Coordinates: N64°9'33" E17°16'28"
Elevation is 1011 feet MSL.
 
View others Airports in Västerbottens län

Operational data

Special qualification required
Current time UTC:
Current local time:
Weather at : ESNV - Vilhelmina ( 51 km )
METAR: ESNV 191520Z AUTO 08006KT 010V120 9999 NCD 01/M10 Q1011
View NOTAMs / SUP AIP / TFR affecting this airport [VIEW]
Communications frequencies: [VIEW]

Runways:

RWY identifierQFULength (ft)Width (ft)SurfaceLDA (ft)
12393798GRASS
30393798GRASS

Airport contact information

Address: Sweden

Satellite view of ESUS